sensor_id;sensor_type;location;lat;lon;timestamp;P1;durP1;ratioP1;P2;durP2;ratioP2
46158;SDS011;74657;45.650;25.590;2024-01-06T00:00:41;34.90;;;16.95;;
46158;SDS011;74657;45.650;25.590;2024-01-06T00:03:04;31.10;;;14.68;;
46158;SDS011;74657;45.650;25.590;2024-01-06T00:05:27;36.03;;;17.20;;
46158;SDS011;74657;45.650;25.590;2024-01-06T00:07:50;34.50;;;16.20;;
46158;SDS011;74657;45.650;25.590;2024-01-06T00:10:13;34.60;;;14.93;;
46158;SDS011;74657;45.650;25.590;2024-01-06T00:12:40;28.40;;;13.13;;
46158;SDS011;74657;45.650;25.590;2024-01-06T00:15:06;24.10;;;12.05;;
46158;SDS011;74657;45.650;25.590;2024-01-06T00:17:29;34.70;;;12.90;;
46158;SDS011;74657;45.650;25.590;2024-01-06T00:19:52;26.95;;;13.65;;
46158;SDS011;74657;45.650;25.590;2024-01-06T00:22:17;28.08;;;14.27;;
46158;SDS011;74657;45.650;25.590;2024-01-06T00:24:41;25.52;;;13.75;;
46158;SDS011;74657;45.650;25.590;2024-01-06T00:27:04;25.50;;;12.10;;
46158;SDS011;74657;45.650;25.590;2024-01-06T00:29:29;32.25;;;13.32;;
46158;SDS011;74657;45.650;25.590;2024-01-06T00:31:52;26.75;;;12.90;;
46158;SDS011;74657;45.650;25.590;2024-01-06T00:34:15;31.50;;;13.98;;
46158;SDS011;74657;45.650;25.590;2024-01-06T00:36:38;27.42;;;12.27;;
46158;SDS011;74657;45.650;25.590;2024-01-06T00:39:01;26.13;;;13.02;;
46158;SDS011;74657;45.650;25.590;2024-01-06T00:41:24;22.45;;;11.38;;
46158;SDS011;74657;45.650;25.590;2024-01-06T00:43:46;20.30;;;10.50;;
46158;SDS011;74657;45.650;25.590;2024-01-06T00:46:11;22.85;;;10.75;;
46158;SDS011;74657;45.650;25.590;2024-01-06T00:48:33;24.38;;;10.95;;
46158;SDS011;74657;45.650;25.590;2024-01-06T00:50:56;22.70;;;9.65;;
46158;SDS011;74657;45.650;25.590;2024-01-06T00:53:19;22.70;;;10.07;;
46158;SDS011;74657;45.650;25.590;2024-01-06T00:55:43;19.25;;;9.23;;
46158;SDS011;74657;45.650;25.590;2024-01-06T00:58:06;18.63;;;9.35;;
46158;SDS011;74657;45.650;25.590;2024-01-06T01:00:29;18.02;;;9.90;;
46158;SDS011;74657;45.650;25.590;2024-01-06T01:02:54;21.73;;;8.88;;
46158;SDS011;74657;45.650;25.590;2024-01-06T01:05:17;19.83;;;10.15;;
46158;SDS011;74657;45.650;25.590;2024-01-06T01:07:40;23.08;;;9.73;;
46158;SDS011;74657;45.650;25.590;2024-01-06T01:10:04;20.27;;;9.40;;
46158;SDS011;74657;45.650;25.590;2024-01-06T01:12:27;17.90;;;8.82;;
46158;SDS011;74657;45.650;25.590;2024-01-06T01:14:52;22.00;;;9.60;;
46158;SDS011;74657;45.650;25.590;2024-01-06T01:17:15;18.65;;;9.55;;
46158;SDS011;74657;45.650;25.590;2024-01-06T01:19:42;18.95;;;9.00;;
46158;SDS011;74657;45.650;25.590;2024-01-06T01:22:05;18.60;;;8.00;;
46158;SDS011;74657;45.650;25.590;2024-01-06T01:24:30;19.27;;;9.00;;
46158;SDS011;74657;45.650;25.590;2024-01-06T01:26:53;19.58;;;9.02;;
46158;SDS011;74657;45.650;25.590;2024-01-06T01:29:16;23.20;;;9.48;;
46158;SDS011;74657;45.650;25.590;2024-01-06T01:31:41;16.33;;;8.50;;
46158;SDS011;74657;45.650;25.590;2024-01-06T01:34:04;17.35;;;9.23;;
46158;SDS011;74657;45.650;25.590;2024-01-06T01:36:28;18.13;;;8.68;;
46158;SDS011;74657;45.650;25.590;2024-01-06T01:38:53;21.15;;;9.32;;
46158;SDS011;74657;45.650;25.590;2024-01-06T01:41:16;17.40;;;8.68;;
46158;SDS011;74657;45.650;25.590;2024-01-06T01:43:38;16.63;;;8.93;;
46158;SDS011;74657;45.650;25.590;2024-01-06T01:46:01;18.85;;;9.18;;
46158;SDS011;74657;45.650;25.590;2024-01-06T01:48:24;18.10;;;9.02;;
46158;SDS011;74657;45.650;25.590;2024-01-06T01:50:48;18.45;;;8.77;;
46158;SDS011;74657;45.650;25.590;2024-01-06T01:53:12;19.65;;;9.50;;
46158;SDS011;74657;45.650;25.590;2024-01-06T01:55:36;20.08;;;9.00;;
46158;SDS011;74657;45.650;25.590;2024-01-06T01:57:58;22.83;;;9.80;;
46158;SDS011;74657;45.650;25.590;2024-01-06T02:00:21;18.63;;;9.18;;
46158;SDS011;74657;45.650;25.590;2024-01-06T02:02:47;18.95;;;8.45;;
46158;SDS011;74657;45.650;25.590;2024-01-06T02:05:10;18.10;;;8.45;;
46158;SDS011;74657;45.650;25.590;2024-01-06T02:07:33;16.88;;;8.55;;
46158;SDS011;74657;45.650;25.590;2024-01-06T02:09:58;19.63;;;10.05;;
46158;SDS011;74657;45.650;25.590;2024-01-06T02:12:21;22.85;;;9.15;;
46158;SDS011;74657;45.650;25.590;2024-01-06T02:14:44;16.35;;;8.05;;
46158;SDS011;74657;45.650;25.590;2024-01-06T02:17:07;18.45;;;8.98;;
46158;SDS011;74657;45.650;25.590;2024-01-06T02:19:30;22.55;;;9.70;;
46158;SDS011;74657;45.650;25.590;2024-01-06T02:21:54;17.50;;;9.68;;
46158;SDS011;74657;45.650;25.590;2024-01-06T02:24:17;21.38;;;9.63;;
46158;SDS011;74657;45.650;25.590;2024-01-06T02:26:40;21.45;;;9.18;;
46158;SDS011;74657;45.650;25.590;2024-01-06T02:29:03;19.20;;;9.50;;
46158;SDS011;74657;45.650;25.590;2024-01-06T02:31:25;17.35;;;9.38;;
46158;SDS011;74657;45.650;25.590;2024-01-06T02:33:48;19.42;;;9.57;;
46158;SDS011;74657;45.650;25.590;2024-01-06T02:36:11;18.40;;;9.32;;
46158;SDS011;74657;45.650;25.590;2024-01-06T02:38:36;19.50;;;9.85;;
46158;SDS011;74657;45.650;25.590;2024-01-06T02:40:58;22.15;;;10.80;;
46158;SDS011;74657;45.650;25.590;2024-01-06T02:43:21;22.75;;;10.38;;
46158;SDS011;74657;45.650;25.590;2024-01-06T02:45:44;20.70;;;10.20;;
46158;SDS011;74657;45.650;25.590;2024-01-06T02:48:08;24.13;;;10.70;;
46158;SDS011;74657;45.650;25.590;2024-01-06T02:50:31;23.08;;;10.90;;
46158;SDS011;74657;45.650;25.590;2024-01-06T02:52:54;24.73;;;11.18;;
46158;SDS011;74657;45.650;25.590;2024-01-06T02:55:18;22.90;;;10.48;;
46158;SDS011;74657;45.650;25.590;2024-01-06T02:57:41;20.60;;;10.60;;
46158;SDS011;74657;45.650;25.590;2024-01-06T03:00:04;17.38;;;9.48;;
46158;SDS011;74657;45.650;25.590;2024-01-06T03:02:28;23.02;;;10.00;;
46158;SDS011;74657;45.650;25.590;2024-01-06T03:04:50;19.42;;;10.75;;
46158;SDS011;74657;45.650;25.590;2024-01-06T03:07:13;20.52;;;10.07;;
46158;SDS011;74657;45.650;25.590;2024-01-06T03:09:36;18.90;;;9.68;;
46158;SDS011;74657;45.650;25.590;2024-01-06T03:12:02;20.85;;;9.77;;
46158;SDS011;74657;45.650;25.590;2024-01-06T03:14:26;19.90;;;10.38;;
46158;SDS011;74657;45.650;25.590;2024-01-06T03:16:49;20.00;;;9.38;;
46158;SDS011;74657;45.650;25.590;2024-01-06T03:19:12;18.80;;;9.38;;
46158;SDS011;74657;45.650;25.590;2024-01-06T03:21:35;23.30;;;10.30;;
46158;SDS011;74657;45.650;25.590;2024-01-06T03:23:58;20.20;;;9.65;;
46158;SDS011;74657;45.650;25.590;2024-01-06T03:26:21;19.58;;;9.68;;
46158;SDS011;74657;45.650;25.590;2024-01-06T03:28:46;20.05;;;9.40;;
46158;SDS011;74657;45.650;25.590;2024-01-06T03:31:10;20.70;;;9.57;;
46158;SDS011;74657;45.650;25.590;2024-01-06T03:33:33;17.83;;;8.10;;
46158;SDS011;74657;45.650;25.590;2024-01-06T03:35:56;15.60;;;7.90;;
46158;SDS011;74657;45.650;25.590;2024-01-06T03:38:19;16.65;;;7.28;;
46158;SDS011;74657;45.650;25.590;2024-01-06T03:40:42;14.43;;;8.13;;
46158;SDS011;74657;45.650;25.590;2024-01-06T03:43:05;17.27;;;8.32;;
46158;SDS011;74657;45.650;25.590;2024-01-06T03:45:29;15.05;;;8.30;;
46158;SDS011;74657;45.650;25.590;2024-01-06T03:47:52;17.55;;;9.63;;
46158;SDS011;74657;45.650;25.590;2024-01-06T03:50:15;18.25;;;8.82;;
46158;SDS011;74657;45.650;25.590;2024-01-06T03:52:38;20.60;;;9.88;;
46158;SDS011;74657;45.650;25.590;2024-01-06T03:55:01;18.92;;;9.38;;
46158;SDS011;74657;45.650;25.590;2024-01-06T03:57:23;17.83;;;8.88;;
46158;SDS011;74657;45.650;25.590;2024-01-06T03:59:46;17.63;;;9.15;;
46158;SDS011;74657;45.650;25.590;2024-01-06T04:02:10;15.40;;;8.15;;
46158;SDS011;74657;45.650;25.590;2024-01-06T04:04:33;17.77;;;8.93;;
46158;SDS011;74657;45.650;25.590;2024-01-06T04:06:57;19.60;;;8.43;;
46158;SDS011;74657;45.650;25.590;2024-01-06T04:09:22;18.52;;;8.65;;
46158;SDS011;74657;45.650;25.590;2024-01-06T04:11:45;18.52;;;9.00;;
46158;SDS011;74657;45.650;25.590;2024-01-06T04:14:08;15.93;;;8.27;;
46158;SDS011;74657;45.650;25.590;2024-01-06T04:16:30;21.38;;;9.57;;
46158;SDS011;74657;45.650;25.590;2024-01-06T04:18:55;20.45;;;10.25;;
46158;SDS011;74657;45.650;25.590;2024-01-06T04:21:18;22.55;;;9.25;;
46158;SDS011;74657;45.650;25.590;2024-01-06T04:23:41;22.58;;;9.55;;
46158;SDS011;74657;45.650;25.590;2024-01-06T04:26:04;16.42;;;8.57;;
46158;SDS011;74657;45.650;25.590;2024-01-06T04:28:27;16.05;;;8.18;;
46158;SDS011;74657;45.650;25.590;2024-01-06T04:30:50;22.08;;;9.32;;
46158;SDS011;74657;45.650;25.590;2024-01-06T04:33:13;17.08;;;8.52;;
46158;SDS011;74657;45.650;25.590;2024-01-06T04:35:37;21.13;;;9.60;;
46158;SDS011;74657;45.650;25.590;2024-01-06T04:38:00;18.60;;;8.43;;
46158;SDS011;74657;45.650;25.590;2024-01-06T04:40:23;18.27;;;8.70;;
46158;SDS011;74657;45.650;25.590;2024-01-06T04:42:46;16.67;;;8.45;;
46158;SDS011;74657;45.650;25.590;2024-01-06T04:45:09;18.13;;;8.65;;
46158;SDS011;74657;45.650;25.590;2024-01-06T04:47:32;17.92;;;8.30;;
46158;SDS011;74657;45.650;25.590;2024-01-06T04:49:55;16.67;;;8.38;;
46158;SDS011;74657;45.650;25.590;2024-01-06T04:52:20;17.67;;;8.80;;
46158;SDS011;74657;45.650;25.590;2024-01-06T04:54:43;15.25;;;7.85;;
46158;SDS011;74657;45.650;25.590;2024-01-06T04:57:06;18.02;;;8.30;;
46158;SDS011;74657;45.650;25.590;2024-01-06T04:59:29;20.90;;;7.88;;
46158;SDS011;74657;45.650;25.590;2024-01-06T05:01:52;18.23;;;7.38;;
46158;SDS011;74657;45.650;25.590;2024-01-06T05:04:16;16.63;;;7.57;;
46158;SDS011;74657;45.650;25.590;2024-01-06T05:06:38;14.35;;;7.45;;
46158;SDS011;74657;45.650;25.590;2024-01-06T05:09:02;19.13;;;8.05;;
46158;SDS011;74657;45.650;25.590;2024-01-06T05:11:25;15.65;;;7.22;;
46158;SDS011;74657;45.650;25.590;2024-01-06T05:13:48;19.77;;;8.40;;
46158;SDS011;74657;45.650;25.590;2024-01-06T05:16:11;16.90;;;7.90;;
46158;SDS011;74657;45.650;25.590;2024-01-06T05:18:34;14.40;;;7.03;;
46158;SDS011;74657;45.650;25.590;2024-01-06T05:20:57;15.82;;;7.35;;
46158;SDS011;74657;45.650;25.590;2024-01-06T05:23:20;19.10;;;8.35;;
46158;SDS011;74657;45.650;25.590;2024-01-06T05:25:45;15.35;;;7.75;;
46158;SDS011;74657;45.650;25.590;2024-01-06T05:28:07;16.00;;;7.32;;
46158;SDS011;74657;45.650;25.590;2024-01-06T05:30:30;19.45;;;6.85;;
46158;SDS011;74657;45.650;25.590;2024-01-06T05:32:53;14.48;;;6.90;;
46158;SDS011;74657;45.650;25.590;2024-01-06T05:35:16;14.07;;;6.30;;
46158;SDS011;74657;45.650;25.590;2024-01-06T05:37:38;13.10;;;6.65;;
46158;SDS011;74657;45.650;25.590;2024-01-06T05:40:01;16.73;;;6.90;;
46158;SDS011;74657;45.650;25.590;2024-01-06T05:42:27;15.48;;;7.15;;
46158;SDS011;74657;45.650;25.590;2024-01-06T05:44:50;20.00;;;7.75;;
46158;SDS011;74657;45.650;25.590;2024-01-06T05:47:14;11.68;;;6.38;;
46158;SDS011;74657;45.650;25.590;2024-01-06T05:49:41;15.77;;;7.70;;
46158;SDS011;74657;45.650;25.590;2024-01-06T05:52:04;10.75;;;6.85;;
46158;SDS011;74657;45.650;25.590;2024-01-06T05:54:27;18.40;;;8.70;;
46158;SDS011;74657;45.650;25.590;2024-01-06T05:56:51;17.42;;;7.47;;
46158;SDS011;74657;45.650;25.590;2024-01-06T05:59:16;14.98;;;7.00;;
46158;SDS011;74657;45.650;25.590;2024-01-06T06:01:38;14.60;;;7.22;;
46158;SDS011;74657;45.650;25.590;2024-01-06T06:04:01;15.25;;;7.93;;
46158;SDS011;74657;45.650;25.590;2024-01-06T06:06:25;17.52;;;9.32;;
46158;SDS011;74657;45.650;25.590;2024-01-06T06:08:48;19.20;;;9.77;;
46158;SDS011;74657;45.650;25.590;2024-01-06T06:11:11;20.58;;;10.00;;
46158;SDS011;74657;45.650;25.590;2024-01-06T06:13:44;20.38;;;9.50;;
46158;SDS011;74657;45.650;25.590;2024-01-06T06:16:10;17.67;;;8.57;;
46158;SDS011;74657;45.650;25.590;2024-01-06T06:18:34;12.23;;;7.22;;
46158;SDS011;74657;45.650;25.590;2024-01-06T06:20:57;11.73;;;6.63;;
46158;SDS011;74657;45.650;25.590;2024-01-06T06:23:20;11.95;;;5.95;;
46158;SDS011;74657;45.650;25.590;2024-01-06T06:25:43;13.40;;;6.30;;
46158;SDS011;74657;45.650;25.590;2024-01-06T06:28:06;10.77;;;5.55;;
46158;SDS011;74657;45.650;25.590;2024-01-06T06:30:29;13.00;;;6.18;;
46158;SDS011;74657;45.650;25.590;2024-01-06T06:32:55;15.23;;;6.43;;
46158;SDS011;74657;45.650;25.590;2024-01-06T06:35:18;22.70;;;10.07;;
46158;SDS011;74657;45.650;25.590;2024-01-06T06:37:41;27.95;;;12.25;;
46158;SDS011;74657;45.650;25.590;2024-01-06T06:40:04;23.95;;;12.55;;
46158;SDS011;74657;45.650;25.590;2024-01-06T06:42:28;31.15;;;16.23;;
46158;SDS011;74657;45.650;25.590;2024-01-06T06:44:52;33.17;;;16.50;;
46158;SDS011;74657;45.650;25.590;2024-01-06T06:47:28;34.38;;;14.43;;
46158;SDS011;74657;45.650;25.590;2024-01-06T06:50:16;33.60;;;16.13;;
46158;SDS011;74657;45.650;25.590;2024-01-06T06:52:40;30.38;;;14.68;;
46158;SDS011;74657;45.650;25.590;2024-01-06T06:55:03;24.83;;;13.35;;
46158;SDS011;74657;45.650;25.590;2024-01-06T06:57:30;25.20;;;11.00;;
46158;SDS011;74657;45.650;25.590;2024-01-06T06:59:59;24.48;;;12.55;;
46158;SDS011;74657;45.650;25.590;2024-01-06T07:02:29;47.28;;;22.08;;
46158;SDS011;74657;45.650;25.590;2024-01-06T07:04:52;26.02;;;11.65;;
46158;SDS011;74657;45.650;25.590;2024-01-06T07:07:16;28.25;;;12.15;;
46158;SDS011;74657;45.650;25.590;2024-01-06T07:09:40;25.40;;;11.90;;
46158;SDS011;74657;45.650;25.590;2024-01-06T07:12:03;29.23;;;13.15;;
46158;SDS011;74657;45.650;25.590;2024-01-06T07:14:26;28.77;;;12.82;;
46158;SDS011;74657;45.650;25.590;2024-01-06T07:16:49;25.17;;;12.77;;
46158;SDS011;74657;45.650;25.590;2024-01-06T07:19:11;25.00;;;11.40;;
46158;SDS011;74657;45.650;25.590;2024-01-06T07:21:34;16.50;;;9.05;;
46158;SDS011;74657;45.650;25.590;2024-01-06T07:23:59;21.50;;;9.65;;
46158;SDS011;74657;45.650;25.590;2024-01-06T07:26:22;21.58;;;10.10;;
46158;SDS011;74657;45.650;25.590;2024-01-06T07:28:46;19.67;;;10.00;;
46158;SDS011;74657;45.650;25.590;2024-01-06T07:31:09;23.67;;;12.15;;
46158;SDS011;74657;45.650;25.590;2024-01-06T07:33:32;25.48;;;11.90;;
46158;SDS011;74657;45.650;25.590;2024-01-06T07:35:55;29.63;;;11.75;;
46158;SDS011;74657;45.650;25.590;2024-01-06T07:38:18;22.65;;;9.73;;
46158;SDS011;74657;45.650;25.590;2024-01-06T07:40:42;26.58;;;11.50;;
46158;SDS011;74657;45.650;25.590;2024-01-06T07:43:05;26.63;;;12.73;;
46158;SDS011;74657;45.650;25.590;2024-01-06T07:45:28;27.40;;;13.05;;
46158;SDS011;74657;45.650;25.590;2024-01-06T07:47:52;27.85;;;13.55;;
46158;SDS011;74657;45.650;25.590;2024-01-06T07:50:14;27.67;;;12.57;;
46158;SDS011;74657;45.650;25.590;2024-01-06T07:52:37;26.17;;;13.82;;
46158;SDS011;74657;45.650;25.590;2024-01-06T07:55:01;26.30;;;12.05;;
46158;SDS011;74657;45.650;25.590;2024-01-06T07:57:25;32.88;;;13.85;;
46158;SDS011;74657;45.650;25.590;2024-01-06T07:59:49;30.88;;;13.98;;
46158;SDS011;74657;45.650;25.590;2024-01-06T08:02:12;32.13;;;16.63;;
46158;SDS011;74657;45.650;25.590;2024-01-06T08:04:35;45.80;;;14.00;;
46158;SDS011;74657;45.650;25.590;2024-01-06T08:06:57;43.45;;;18.45;;
46158;SDS011;74657;45.650;25.590;2024-01-06T08:09:20;32.55;;;14.93;;
46158;SDS011;74657;45.650;25.590;2024-01-06T08:11:44;39.53;;;16.63;;
46158;SDS011;74657;45.650;25.590;2024-01-06T08:14:10;44.22;;;14.27;;
46158;SDS011;74657;45.650;25.590;2024-01-06T08:16:33;28.33;;;12.52;;
46158;SDS011;74657;45.650;25.590;2024-01-06T08:18:56;26.17;;;12.20;;
46158;SDS011;74657;45.650;25.590;2024-01-06T08:21:19;26.08;;;12.88;;
46158;SDS011;74657;45.650;25.590;2024-01-06T08:23:42;27.88;;;12.98;;
46158;SDS011;74657;45.650;25.590;2024-01-06T08:26:05;24.83;;;13.80;;
46158;SDS011;74657;45.650;25.590;2024-01-06T08:28:32;31.27;;;14.93;;
46158;SDS011;74657;45.650;25.590;2024-01-06T08:30:57;26.52;;;13.93;;
46158;SDS011;74657;45.650;25.590;2024-01-06T08:33:20;29.50;;;14.70;;
46158;SDS011;74657;45.650;25.590;2024-01-06T08:35:43;30.48;;;14.88;;
46158;SDS011;74657;45.650;25.590;2024-01-06T08:38:05;27.48;;;13.40;;
46158;SDS011;74657;45.650;25.590;2024-01-06T08:40:28;28.23;;;13.70;;
46158;SDS011;74657;45.650;25.590;2024-01-06T08:42:51;32.30;;;13.98;;
46158;SDS011;74657;45.650;25.590;2024-01-06T08:45:14;25.80;;;13.85;;
46158;SDS011;74657;45.650;25.590;2024-01-06T08:47:39;29.13;;;13.40;;
46158;SDS011;74657;45.650;25.590;2024-01-06T08:50:02;28.42;;;13.30;;
46158;SDS011;74657;45.650;25.590;2024-01-06T08:52:25;24.88;;;12.38;;
46158;SDS011;74657;45.650;25.590;2024-01-06T08:54:48;24.90;;;12.43;;
46158;SDS011;74657;45.650;25.590;2024-01-06T08:57:12;22.58;;;11.60;;
46158;SDS011;74657;45.650;25.590;2024-01-06T08:59:35;16.98;;;10.15;;
46158;SDS011;74657;45.650;25.590;2024-01-06T09:01:58;17.77;;;9.98;;
46158;SDS011;74657;45.650;25.590;2024-01-06T09:04:23;18.80;;;10.80;;
46158;SDS011;74657;45.650;25.590;2024-01-06T09:06:46;24.70;;;10.32;;
46158;SDS011;74657;45.650;25.590;2024-01-06T09:09:09;29.10;;;10.77;;
46158;SDS011;74657;45.650;25.590;2024-01-06T09:11:32;24.27;;;12.27;;
46158;SDS011;74657;45.650;25.590;2024-01-06T09:13:56;23.50;;;10.30;;
46158;SDS011;74657;45.650;25.590;2024-01-06T09:16:19;19.60;;;9.88;;
46158;SDS011;74657;45.650;25.590;2024-01-06T09:18:42;24.15;;;9.20;;
46158;SDS011;74657;45.650;25.590;2024-01-06T09:21:07;29.60;;;9.70;;
46158;SDS011;74657;45.650;25.590;2024-01-06T09:23:29;23.35;;;9.25;;
46158;SDS011;74657;45.650;25.590;2024-01-06T09:25:52;22.58;;;11.55;;
46158;SDS011;74657;45.650;25.590;2024-01-06T09:28:15;20.75;;;10.95;;
46158;SDS011;74657;45.650;25.590;2024-01-06T09:30:38;22.45;;;9.60;;
46158;SDS011;74657;45.650;25.590;2024-01-06T09:33:01;20.75;;;11.60;;
46158;SDS011;74657;45.650;25.590;2024-01-06T09:35:24;27.48;;;11.63;;
46158;SDS011;74657;45.650;25.590;2024-01-06T09:37:48;27.23;;;12.57;;
46158;SDS011;74657;45.650;25.590;2024-01-06T09:40:11;33.22;;;13.77;;
46158;SDS011;74657;45.650;25.590;2024-01-06T09:42:35;27.05;;;12.20;;
46158;SDS011;74657;45.650;25.590;2024-01-06T09:44:58;27.05;;;12.85;;
46158;SDS011;74657;45.650;25.590;2024-01-06T09:47:22;28.98;;;12.32;;
46158;SDS011;74657;45.650;25.590;2024-01-06T09:49:46;27.13;;;12.02;;
46158;SDS011;74657;45.650;25.590;2024-01-06T09:52:13;28.52;;;12.32;;
46158;SDS011;74657;45.650;25.590;2024-01-06T09:54:39;23.50;;;11.95;;
46158;SDS011;74657;45.650;25.590;2024-01-06T09:57:08;27.70;;;12.70;;
46158;SDS011;74657;45.650;25.590;2024-01-06T09:59:31;24.30;;;11.77;;
46158;SDS011;74657;45.650;25.590;2024-01-06T10:01:55;19.77;;;11.35;;
46158;SDS011;74657;45.650;25.590;2024-01-06T10:04:19;23.60;;;10.50;;
46158;SDS011;74657;45.650;25.590;2024-01-06T10:06:44;26.60;;;11.05;;
46158;SDS011;74657;45.650;25.590;2024-01-06T10:09:07;23.15;;;10.93;;
46158;SDS011;74657;45.650;25.590;2024-01-06T10:11:35;23.85;;;11.57;;
46158;SDS011;74657;45.650;25.590;2024-01-06T10:13:58;23.40;;;10.73;;
46158;SDS011;74657;45.650;25.590;2024-01-06T10:16:21;24.55;;;11.77;;
46158;SDS011;74657;45.650;25.590;2024-01-06T10:18:44;22.90;;;10.48;;
46158;SDS011;74657;45.650;25.590;2024-01-06T10:21:13;25.30;;;11.43;;
46158;SDS011;74657;45.650;25.590;2024-01-06T10:23:38;23.88;;;10.63;;
46158;SDS011;74657;45.650;25.590;2024-01-06T10:26:03;20.08;;;10.57;;
46158;SDS011;74657;45.650;25.590;2024-01-06T10:28:28;23.33;;;10.35;;
46158;SDS011;74657;45.650;25.590;2024-01-06T10:30:51;25.88;;;10.80;;
46158;SDS011;74657;45.650;25.590;2024-01-06T10:33:15;21.08;;;9.75;;
46158;SDS011;74657;45.650;25.590;2024-01-06T10:35:38;21.92;;;10.18;;
46158;SDS011;74657;45.650;25.590;2024-01-06T10:38:01;27.60;;;12.07;;
46158;SDS011;74657;45.650;25.590;2024-01-06T10:40:25;20.00;;;9.93;;
46158;SDS011;74657;45.650;25.590;2024-01-06T10:42:47;19.17;;;9.98;;
46158;SDS011;74657;45.650;25.590;2024-01-06T10:45:12;19.33;;;9.18;;
46158;SDS011;74657;45.650;25.590;2024-01-06T10:47:37;16.42;;;9.05;;
46158;SDS011;74657;45.650;25.590;2024-01-06T10:50:00;15.73;;;8.00;;
46158;SDS011;74657;45.650;25.590;2024-01-06T10:52:24;16.15;;;7.90;;
46158;SDS011;74657;45.650;25.590;2024-01-06T10:54:48;15.55;;;8.15;;
46158;SDS011;74657;45.650;25.590;2024-01-06T10:57:12;19.20;;;8.60;;
46158;SDS011;74657;45.650;25.590;2024-01-06T10:59:36;21.95;;;8.90;;
46158;SDS011;74657;45.650;25.590;2024-01-06T11:02:01;21.05;;;8.43;;
46158;SDS011;74657;45.650;25.590;2024-01-06T11:04:26;22.33;;;8.57;;
46158;SDS011;74657;45.650;25.590;2024-01-06T11:06:49;24.52;;;9.88;;
46158;SDS011;74657;45.650;25.590;2024-01-06T11:09:14;18.42;;;6.90;;
46158;SDS011;74657;45.650;25.590;2024-01-06T11:14:18;23.63;;;8.82;;
46158;SDS011;74657;45.650;25.590;2024-01-06T11:16:42;20.70;;;7.68;;
46158;SDS011;74657;45.650;25.590;2024-01-06T11:19:41;15.07;;;6.57;;
46158;SDS011;74657;45.650;25.590;2024-01-06T11:22:17;12.63;;;5.25;;
46158;SDS011;74657;45.650;25.590;2024-01-06T11:24:46;19.00;;;7.05;;
46158;SDS011;74657;45.650;25.590;2024-01-06T11:27:10;15.30;;;6.95;;
46158;SDS011;74657;45.650;25.590;2024-01-06T11:32:24;30.63;;;15.15;;
46158;SDS011;74657;45.650;25.590;2024-01-06T11:34:51;32.60;;;15.20;;
46158;SDS011;74657;45.650;25.590;2024-01-06T11:37:15;27.45;;;11.77;;
46158;SDS011;74657;45.650;25.590;2024-01-06T11:39:41;19.83;;;10.40;;
46158;SDS011;74657;45.650;25.590;2024-01-06T11:42:04;17.98;;;7.82;;
46158;SDS011;74657;45.650;25.590;2024-01-06T11:44:33;17.45;;;8.63;;
46158;SDS011;74657;45.650;25.590;2024-01-06T11:46:56;20.20;;;8.80;;
46158;SDS011;74657;45.650;25.590;2024-01-06T11:49:20;25.00;;;9.73;;
46158;SDS011;74657;45.650;25.590;2024-01-06T11:51:45;15.85;;;8.10;;
46158;SDS011;74657;45.650;25.590;2024-01-06T11:54:08;28.88;;;12.63;;
46158;SDS011;74657;45.650;25.590;2024-01-06T11:56:33;29.85;;;10.65;;
46158;SDS011;74657;45.650;25.590;2024-01-06T11:58:56;25.85;;;10.50;;
46158;SDS011;74657;45.650;25.590;2024-01-06T12:01:18;22.85;;;9.73;;
46158;SDS011;74657;45.650;25.590;2024-01-06T12:03:41;27.58;;;10.80;;
46158;SDS011;74657;45.650;25.590;2024-01-06T12:06:04;26.45;;;10.23;;
46158;SDS011;74657;45.650;25.590;2024-01-06T12:08:29;26.58;;;12.05;;
46158;SDS011;74657;45.650;25.590;2024-01-06T12:10:52;20.33;;;10.00;;
46158;SDS011;74657;45.650;25.590;2024-01-06T12:13:24;27.15;;;11.50;;
46158;SDS011;74657;45.650;25.590;2024-01-06T12:15:47;26.65;;;12.32;;
46158;SDS011;74657;45.650;25.590;2024-01-06T12:18:11;27.98;;;12.77;;
46158;SDS011;74657;45.650;25.590;2024-01-06T12:20:36;24.50;;;11.80;;
46158;SDS011;74657;45.650;25.590;2024-01-06T12:22:59;30.08;;;12.25;;
46158;SDS011;74657;45.650;25.590;2024-01-06T12:25:28;30.17;;;10.48;;
46158;SDS011;74657;45.650;25.590;2024-01-06T12:28:00;23.90;;;11.13;;
46158;SDS011;74657;45.650;25.590;2024-01-06T12:30:24;21.48;;;10.35;;
46158;SDS011;74657;45.650;25.590;2024-01-06T12:32:49;25.17;;;10.45;;
46158;SDS011;74657;45.650;25.590;2024-01-06T12:35:13;18.08;;;8.80;;
46158;SDS011;74657;45.650;25.590;2024-01-06T12:37:36;21.23;;;9.45;;
46158;SDS011;74657;45.650;25.590;2024-01-06T12:40:02;23.10;;;9.02;;
46158;SDS011;74657;45.650;25.590;2024-01-06T12:42:26;19.60;;;9.93;;
46158;SDS011;74657;45.650;25.590;2024-01-06T12:44:49;25.48;;;9.55;;
46158;SDS011;74657;45.650;25.590;2024-01-06T12:47:12;17.85;;;8.50;;
46158;SDS011;74657;45.650;25.590;2024-01-06T12:49:35;18.30;;;9.10;;
46158;SDS011;74657;45.650;25.590;2024-01-06T12:51:58;23.88;;;9.82;;
46158;SDS011;74657;45.650;25.590;2024-01-06T12:54:21;19.33;;;9.55;;
46158;SDS011;74657;45.650;25.590;2024-01-06T12:56:44;21.40;;;9.23;;
46158;SDS011;74657;45.650;25.590;2024-01-06T12:59:09;21.02;;;9.75;;
46158;SDS011;74657;45.650;25.590;2024-01-06T13:01:32;22.98;;;10.20;;
46158;SDS011;74657;45.650;25.590;2024-01-06T13:03:55;22.30;;;9.38;;
46158;SDS011;74657;45.650;25.590;2024-01-06T13:06:21;20.17;;;8.95;;
46158;SDS011;74657;45.650;25.590;2024-01-06T13:08:44;20.63;;;9.18;;
46158;SDS011;74657;45.650;25.590;2024-01-06T13:11:08;18.75;;;8.35;;
46158;SDS011;74657;45.650;25.590;2024-01-06T13:13:31;17.85;;;8.77;;
46158;SDS011;74657;45.650;25.590;2024-01-06T13:15:56;18.58;;;8.90;;
46158;SDS011;74657;45.650;25.590;2024-01-06T13:18:19;22.30;;;9.60;;
46158;SDS011;74657;45.650;25.590;2024-01-06T13:20:42;19.20;;;9.15;;
46158;SDS011;74657;45.650;25.590;2024-01-06T13:23:04;26.38;;;9.65;;
46158;SDS011;74657;45.650;25.590;2024-01-06T13:25:27;24.65;;;9.98;;
46158;SDS011;74657;45.650;25.590;2024-01-06T13:27:49;22.48;;;10.18;;
46158;SDS011;74657;45.650;25.590;2024-01-06T13:30:12;27.42;;;9.30;;
46158;SDS011;74657;45.650;25.590;2024-01-06T13:32:40;19.13;;;9.02;;
46158;SDS011;74657;45.650;25.590;2024-01-06T13:35:04;16.90;;;8.80;;
46158;SDS011;74657;45.650;25.590;2024-01-06T13:37:27;23.58;;;10.05;;
46158;SDS011;74657;45.650;25.590;2024-01-06T13:39:50;20.90;;;10.65;;
46158;SDS011;74657;45.650;25.590;2024-01-06T13:42:13;21.23;;;10.75;;
46158;SDS011;74657;45.650;25.590;2024-01-06T13:44:39;19.33;;;10.05;;
46158;SDS011;74657;45.650;25.590;2024-01-06T13:47:01;19.98;;;9.60;;
46158;SDS011;74657;45.650;25.590;2024-01-06T13:49:26;20.15;;;10.23;;
46158;SDS011;74657;45.650;25.590;2024-01-06T13:51:49;31.20;;;11.88;;
46158;SDS011;74657;45.650;25.590;2024-01-06T13:54:12;20.67;;;11.63;;
46158;SDS011;74657;45.650;25.590;2024-01-06T13:56:39;23.60;;;11.27;;
46158;SDS011;74657;45.650;25.590;2024-01-06T13:59:02;25.95;;;12.13;;
46158;SDS011;74657;45.650;25.590;2024-01-06T14:01:25;23.92;;;11.70;;